Latest Coastal Weather Observations for Mandora

IDW60701

Issued at 10:53 am WST Tuesday 25 July 2017 (issued every 10 minutes, with the page automatically refreshed every 10 minutes)

About coastal observations | Map of coastal stations | Coastal observations for WA | Marine services | Other Formats
Station Details ID: 004019 Name: MANDORA Lat: -19.74 Lon: 120.84 Height: 7.5 m
Data from the previous 72 hours. | See also: Recent months at Mandora
Date/Time
WST
Temp
°C
Wind Pressure Rain since
9am
mm
Weather Cloud Vis
km
Sea
Height
m
Swell
Dir  Spd
kts
Gust
kts
hPa Trend Height
m
Period
s
Dir
25/10:30am 30.4 E 10 15 1017.3 - 0.0 - - - - - - -
25/10:00am 28.5 E 10 17 1017.7 - 0.0 - - - - - - -
25/09:30am 28.1 E 9 14 1018.1 - 0.0 - - - - - - -
25/09:00am 26.6 E 9 14 1018.1 - 0.0 - - - - - - -
25/08:30am 23.9 SE 8 11 1017.9 - 0.0 - - - - - - -
25/08:00am 22.7 SE 7 11 1017.8 - 0.0 - - - - - - -
25/07:30am 18.9 SE 6 8 1017.5 - 0.0 - - - - - - -
25/07:00am 15.2 SE 5 7 1017.1 - 0.0 - - - - - - -
25/06:30am 13.6 SE 4 6 1016.8 - 0.0 - - - - - - -
25/06:00am 15.6 SSE 5 6 1016.7 - 0.0 - - - - - - -
25/05:30am 16.5 SE 6 9 1016.4 - 0.0 - - - - - - -
25/05:00am 15.5 SE 5 7 1016.1 - 0.0 - - - - - - -
25/04:30am 16.0 SE 5 8 1016.1 - 0.0 - - - - - - -
25/04:00am 15.0 SSE 5 7 1016.0 - 0.0 - - - - - - -
25/03:30am 14.1 SE 4 6 1015.9 - 0.0 - - - - - - -
25/03:00am 16.2 SE 5 11 1015.9 - 0.0 - - - - - - -
25/02:30am 16.6 S 6 7 1015.8 - 0.0 - - - - - - -
25/02:00am 16.0 S 6 8 1015.9 - 0.0 - - - - - - -
25/01:30am 15.5 S 6 8 1016.1 - 0.0 - - - - - - -
25/01:00am 11.9 S 5 6 1016.1 - 0.0 - - - - - - -
25/12:30am 12.3 WSW 1 4 1016.3 - 0.0 - - - - - - -
25/12:00am 11.9 S 1 4 1016.4 - 0.0 - - - - - - -
 
Date/Time
WST
Temp
°C
Wind Pressure Rain since
9am
mm
Weather Cloud Vis
km
Sea
Height
m
Swell
Dir  Spd
kts
Gust
kts
hPa Trend Height
m
Period
s
Dir
24/11:30pm 12.5 S 3 5 1016.4 - 0.0 - - - - - - -
24/11:00pm 12.8 SSE 3 4 1016.4 - 0.0 - - - - - - -
24/10:30pm 13.9 SE 4 5 1016.3 - 0.0 - - - - - - -
24/10:00pm 15.0 SE 4 5 1016.2 - 0.0 - - - - - - -
24/09:30pm 15.6 SSW 5 6 1016.1 - 0.0 - - - - - - -
24/09:00pm 15.4 WSW 4 5 1016.1 - 0.0 - - - - - - -
24/08:30pm 15.7 W 4 5 1015.9 - 0.0 - - - - - - -
24/08:00pm 17.5 WSW 5 5 1015.7 - 0.0 - - - - - - -
24/07:30pm 18.3 W 4 5 1015.4 - 0.0 - - - - - - -
24/07:00pm 19.9 WSW 5 6 1015.1 - 0.0 - - - - - - -
24/06:30pm 21.4 WSW 5 6 1014.7 - 0.0 - - - - - - -
24/06:00pm 22.9 W 5 7 1014.4 - 0.0 - - - - - - -
24/05:30pm 25.7 WNW 4 5 1014.2 - 0.0 - - - - - - -
24/05:00pm 28.2 WNW 6 8 1014.0 - 0.0 - - - - - - -
24/04:30pm 29.7 WNW 7 10 1013.8 - 0.0 - - - - - - -
24/04:00pm 30.5 WNW 7 10 1013.7 - 0.0 - - - - - - -
24/03:30pm 30.7 NW 7 11 1013.8 - 0.0 - - - - - - -
24/03:00pm 30.8 NW 8 11 1013.8 - 0.0 - - - - - - -
24/02:30pm 31.6 NNW 10 13 1013.9 - 0.0 - - - - - - -
24/02:00pm 31.4 NNW 10 13 1014.1 - 0.0 - - - - - - -
24/01:30pm 31.8 N 9 14 1014.3 - 0.0 - - - - - - -
24/01:00pm 32.1 N 9 13 1014.5 - 0.0 - - - - - - -
24/12:30pm 32.3 N 9 15 1014.9 - 0.0 - - - - - - -
24/12:00pm 31.6 NNE 8 13 1015.3 - 0.0 - - - - - - -
24/11:30am 31.7 E 6 11 1015.7 - 0.0 - - - - - - -
24/11:00am 31.2 E 6 11 1016.2 - 0.0 - - - - - - -
24/10:30am 29.9 ESE 6 10 1016.6 - 0.0 - - - - - - -
24/10:00am 27.9 ESE 5 8 1017.0 - 0.0 - - - - - - -
24/09:30am 26.4 ESE 4 5 1017.2 - 0.0 - - - - - - -
24/09:00am 22.5 SSE 4 7 1017.3 - 0.0 - - - - - - -
24/08:30am 20.6 ESE 3 5 1017.3 - 0.0 - - - - - - -
24/08:00am 17.8 E 1 5 1017.3 - 0.0 - - - - - - -
24/07:30am 15.7 E 1 4 1016.9 - 0.0 - - - - - - -
24/07:00am 14.3 SE 4 5 1016.4 - 0.0 - - - - - - -
24/06:30am 14.1 ESE 5 6 1016.0 - 0.0 - - - - - - -
24/06:00am 14.1 ESE 5 6 1015.8 - 0.0 - - - - - - -
24/05:30am 14.2 ESE 4 6 1015.5 - 0.0 - - - - - - -
24/05:00am 13.4 SSE 4 4 1015.4 - 0.0 - - - - - - -
24/04:30am 14.6 SSE 4 4 1015.3 - 0.0 - - - - - - -
24/04:00am 14.1 SSE 3 4 1015.4 - 0.0 - - - - - - -
24/03:30am 14.9 SE 3 4 1015.4 - 0.0 - - - - - - -
24/03:00am 15.3 E 5 7 1015.4 - 0.0 - - - - - - -
24/02:30am 15.3 ESE 3 4 1015.3 - 0.0 - - - - - - -
24/02:00am 14.9 SSW 4 5 1015.4 - 0.0 - - - - - - -
24/01:30am 15.6 SW 4 5 1015.4 - 0.0 - - - - - - -
24/01:00am 16.0 SW 1 4 1015.5 - 0.0 - - - - - - -
24/12:30am 17.5 SSW 3 5 1015.6 - 0.0 - - - - - - -
24/12:00am 17.6 SW 5 6 1015.8 - 0.0 - - - - - - -
 
Date/Time
WST
Temp
°C
Wind Pressure Rain since
9am
mm
Weather Cloud Vis
km
Sea
Height
m
Swell
Dir  Spd
kts
Gust
kts
hPa Trend Height
m
Period
s
Dir
23/11:30pm 17.8 SSW 5 6 1015.9 - 0.0 - - - - - - -
23/11:00pm 18.4 SW 5 5 1015.9 - 0.0 - - - - - - -
23/10:30pm 18.7 SW 5 6 1015.9 - 0.0 - - - - - - -
23/10:00pm 19.1 SW 5 6 1016.0 - 0.0 - - - - - - -
23/09:30pm 19.4 SW 6 8 1015.9 - 0.0 - - - - - - -
23/09:00pm 19.4 WSW 6 7 1015.8 - 0.0 - - - - - - -
23/08:30pm 19.7 WSW 6 7 1015.7 - 0.0 - - - - - - -
23/08:00pm 20.2 WSW 6 8 1015.5 - 0.0 - - - - - - -
23/07:30pm 20.6 WSW 5 6 1015.2 - 0.0 - - - - - - -
23/07:00pm 21.0 W 5 7 1014.9 - 0.0 - - - - - - -
23/06:30pm 21.3 W 6 8 1014.4 - 0.0 - - - - - - -
23/06:00pm 22.0 W 7 9 1014.1 - 0.0 - - - - - - -
23/05:30pm 23.1 WNW 7 10 1013.9 - 0.0 - - - - - - -
23/05:00pm 24.8 WNW 8 13 1013.7 - 0.0 - - - - - - -
23/04:30pm 26.5 WNW 8 13 1013.7 - 0.0 - - - - - - -
23/04:00pm 27.0 WNW 9 13 1013.7 - 0.0 - - - - - - -
23/03:30pm 27.6 WNW 10 13 1013.6 - 0.0 - - - - - - -
23/03:00pm 27.8 WNW 10 13 1013.6 - 0.0 - - - - - - -
23/02:30pm 28.1 WNW 9 14 1013.7 - 0.0 - - - - - - -
23/02:00pm 28.6 NW 8 13 1014.0 - 0.0 - - - - - - -
23/01:30pm 28.9 NW 10 15 1014.3 - 0.0 - - - - - - -
23/01:00pm 28.6 NW 9 12 1014.7 - 0.0 - - - - - - -
23/12:30pm 29.5 NW 9 14 1015.0 - 0.0 - - - - - - -
23/12:00pm 29.2 WNW 7 11 1015.3 - 0.0 - - - - - - -
23/11:30am 29.5 NNW 6 9 1015.8 - 0.0 - - - - - - -
23/11:00am 29.3 WNW 3 7 1016.2 - 0.0 - - - - - - -
23/10:30am 28.4 NNE 3 6 1016.5 - 0.0 - - - - - - -
23/10:00am 28.1 N 3 6 1016.7 - 0.0 - - - - - - -
23/09:30am 26.6 SW 2 4 1016.9 - 0.0 - - - - - - -
23/09:00am 24.9 SSW 5 7 1016.8 - 0.0 - - - - - - -
23/08:30am 22.6 S 5 7 1016.6 - 0.0 - - - - - - -
23/08:00am 20.0 S 5 8 1016.5 - 0.0 - - - - - - -
23/07:30am 17.3 SE 1 3 1016.4 - 0.0 - - - - - - -
23/07:00am 16.6 SE 3 4 1016.2 - 0.0 - - - - - - -
23/06:30am 16.7 ESE 4 5 1016.1 - 0.0 - - - - - - -
23/06:00am 16.6 S 4 5 1015.7 - 0.0 - - - - - - -
23/05:30am 16.7 S 4 6 1015.6 - 0.0 - - - - - - -
23/05:00am 16.8 SSE 4 5 1015.5 - 0.0 - - - - - - -
23/04:30am 16.8 SSW 5 7 1015.4 - 0.0 - - - - - - -
23/04:00am 16.7 SW 6 7 1015.3 - 0.0 - - - - - - -
23/03:30am 16.5 SSW 5 6 1015.4 - 0.0 - - - - - - -
23/03:00am 16.5 SSW 5 6 1015.5 - 0.0 - - - - - - -
23/02:30am 17.0 SSW 5 6 1015.7 - 0.0 - - - - - - -
23/02:00am 17.1 SW 6 7 1015.8 - 0.0 - - - - - - -
23/01:30am 16.9 SSW 5 6 1016.0 - 0.0 - - - - - - -
23/01:00am 16.8 SSW 5 6 1016.2 - 0.0 - - - - - - -
23/12:30am 17.2 SW 5 6 1016.5 - 0.0 - - - - - - -
23/12:00am 17.5 SW 6 7 1016.4 - 0.0 - - - - - - -
 
Date/Time
WST
Temp
°C
Wind Pressure Rain since
9am
mm
Weather Cloud Vis
km
Sea
Height
m
Swell
Dir  Spd
kts
Gust
kts
hPa Trend Height
m
Period
s
Dir
22/11:30pm 17.7 SW 6 7 1016.6 - 0.0 - - - - - - -
22/11:00pm 16.7 SW 5 6 1016.7 - 0.0 - - - - - - -
22/10:30pm 17.2 WSW 4 5 1016.7 - 0.0 - - - - - - -
22/10:00pm 17.5 SW 2 3 1016.7 - 0.0 - - - - - - -
22/09:30pm 16.5 WSW 5 6 1016.4 - 0.0 - - - - - - -
22/09:00pm 18.0 W 5 5 1016.3 - 0.0 - - - - - - -
22/08:30pm 18.0 W 4 4 1016.1 - 0.0 - - - - - - -
22/08:00pm 18.3 W 5 5 1015.9 - 0.0 - - - - - - -
22/07:30pm 19.0 W 4 5 1015.7 - 0.0 - - - - - - -
22/07:00pm 19.7 W 4 5 1015.3 - 0.0 - - - - - - -
22/06:30pm 20.5 W 5 6 1014.9 - 0.0 - - - - - - -
22/06:00pm 21.5 WNW 5 7 1014.5 - 0.0 - - - - - - -
22/05:30pm 23.0 WNW 7 11 1014.2 - 0.0 - - - - - - -
22/05:00pm 25.2 WNW 7 11 1014.1 - 0.0 - - - - - - -
22/04:30pm 26.6 WNW 8 10 1013.9 - 0.0 - - - - - - -
22/04:00pm 26.9 WNW 9 13 1013.9 - 0.0 - - - - - - -
22/03:30pm 27.1 WNW 10 14 1013.8 - 0.0 - - - - - - -
22/03:00pm 27.6 WNW 9 13 1013.8 - 0.0 - - - - - - -
22/02:30pm 28.9 WNW 9 12 1013.7 - 0.0 - - - - - - -
22/02:00pm 28.3 WNW 9 13 1014.0 - 0.0 - - - - - - -
22/01:30pm 29.1 WNW 9 11 1014.3 - 0.0 - - - - - - -
22/01:00pm 28.2 WNW 9 13 1014.8 - 0.0 - - - - - - -
22/12:30pm 28.4 WNW 8 12 1015.3 - 0.0 - - - - - - -
22/12:00pm 28.7 WNW 8 11 1015.8 - 0.0 - - - - - - -
22/11:30am 28.0 NW 8 13 1016.3 - 0.0 - - - - - - -
22/11:00am 27.9 W 7 13 1016.6 - 0.0 - - - - - - -

Other Formats:

Comma delimited format used in spreadsheet applications
http://www.bom.gov.au/fwo/IDW60701/IDW60701.94200.axf

JavaScript Object Notation format (JSON) in row-major order
http://www.bom.gov.au/fwo/IDW60701/IDW60701.94200.json